createdAt,value
2022-10-29T00:00:01.306Z,25.86
2022-10-29T00:00:11.421Z,25.86
2022-10-29T00:00:21.545Z,25.85
2022-10-29T00:00:31.669Z,25.84
2022-10-29T00:00:41.776Z,25.84
2022-10-29T00:00:51.896Z,25.83
2022-10-29T00:01:02.015Z,25.83
2022-10-29T00:01:12.108Z,25.82
2022-10-29T00:01:22.360Z,25.83
2022-10-29T00:01:32.492Z,25.82
2022-10-29T00:01:42.462Z,25.82
2022-10-29T00:01:52.837Z,25.81
2022-10-29T00:02:02.874Z,25.81
2022-10-29T00:02:12.799Z,25.80
2022-10-29T00:02:23.231Z,25.80
2022-10-29T00:02:33.289Z,25.80
2022-10-29T00:02:43.344Z,25.80
2022-10-29T00:02:53.708Z,25.80
2022-10-29T00:03:03.789Z,25.79
2022-10-29T00:03:13.858Z,25.79
2022-10-29T00:03:24.290Z,25.79
2022-10-29T00:03:34.199Z,25.79
2022-10-29T00:03:44.211Z,25.79
2022-10-29T00:03:54.200Z,25.78
2022-10-29T00:04:04.324Z,25.78
2022-10-29T00:04:14.324Z,25.78
2022-10-29T00:04:24.441Z,25.78
2022-10-29T00:04:34.563Z,25.77
2022-10-29T00:04:44.706Z,25.77
2022-10-29T00:04:54.800Z,25.77
2022-10-29T00:05:04.922Z,25.77
2022-10-29T00:05:15.047Z,25.77
2022-10-29T00:05:25.045Z,25.77
2022-10-29T00:05:35.165Z,25.77
2022-10-29T00:05:45.163Z,25.76
2022-10-29T00:05:55.278Z,25.77
2022-10-29T00:06:05.401Z,25.76
2022-10-29T00:06:15.518Z,25.76
2022-10-29T00:06:25.642Z,25.75
2022-10-29T00:06:35.708Z,25.76
2022-10-29T00:06:45.810Z,25.75
2022-10-29T00:06:55.838Z,25.75
2022-10-29T00:07:06.207Z,25.75
2022-10-29T00:07:16.205Z,25.75
2022-10-29T00:07:26.326Z,25.74
2022-10-29T00:07:36.573Z,25.74
2022-10-29T00:07:46.690Z,25.75
2022-10-29T00:07:57.194Z,25.74
2022-10-29T00:08:06.999Z,25.73
2022-10-29T00:08:17.112Z,25.73
2022-10-29T00:08:27.226Z,25.74
2022-10-29T00:08:37.358Z,25.73
2022-10-29T00:08:47.484Z,25.73
2022-10-29T00:08:57.473Z,25.73
2022-10-29T00:09:07.739Z,25.73
2022-10-29T00:09:17.853Z,25.72
2022-10-29T00:09:27.976Z,25.72
2022-10-29T00:09:38.094Z,25.72
2022-10-29T00:09:48.105Z,25.71
2022-10-29T00:09:58.220Z,25.71
2022-10-29T00:10:08.477Z,25.72
2022-10-29T00:10:18.470Z,25.71
2022-10-29T00:10:28.588Z,25.71
2022-10-29T00:10:38.839Z,25.71
2022-10-29T00:10:48.839Z,25.71
2022-10-29T00:10:58.838Z,25.71
2022-10-29T00:11:08.847Z,25.70
2022-10-29T00:11:18.854Z,25.70
2022-10-29T00:11:28.849Z,25.70
2022-10-29T00:11:38.966Z,25.71
2022-10-29T00:11:48.977Z,25.70
2022-10-29T00:11:58.977Z,25.70
2022-10-29T00:12:09.098Z,25.70
2022-10-29T00:12:19.216Z,25.70
2022-10-29T00:12:29.215Z,25.70
2022-10-29T00:12:39.338Z,25.70
2022-10-29T00:12:49.590Z,25.71
2022-10-29T00:12:59.707Z,25.69
2022-10-29T00:13:09.828Z,25.69
2022-10-29T00:13:19.960Z,25.69
2022-10-29T00:13:30.073Z,25.70
2022-10-29T00:13:40.070Z,25.70
2022-10-29T00:13:50.328Z,25.70
2022-10-29T00:14:00.328Z,25.69
2022-10-29T00:14:10.448Z,25.70
2022-10-29T00:14:20.721Z,25.70
2022-10-29T00:14:30.829Z,25.70
2022-10-29T00:14:40.830Z,25.70
2022-10-29T00:14:51.087Z,25.70
2022-10-29T00:15:01.093Z,25.69
2022-10-29T00:15:11.091Z,25.69
2022-10-29T00:15:21.095Z,25.69
2022-10-29T00:15:31.215Z,25.68
2022-10-29T00:15:41.219Z,25.68
2022-10-29T00:15:51.337Z,25.68
2022-10-29T00:16:01.461Z,25.68
2022-10-29T00:16:11.461Z,25.67
2022-10-29T00:16:21.581Z,25.67
2022-10-29T00:16:31.701Z,25.67
2022-10-29T00:16:41.699Z,25.67
2022-10-29T00:16:51.816Z,25.67
2022-10-29T00:17:01.820Z,25.67
2022-10-29T00:17:11.938Z,25.67
2022-10-29T00:17:21.942Z,25.67
2022-10-29T00:17:32.197Z,25.66
2022-10-29T00:17:42.319Z,25.66
2022-10-29T00:17:52.414Z,25.66
2022-10-29T00:18:02.603Z,25.65
2022-10-29T00:18:12.609Z,25.65
2022-10-29T00:18:22.607Z,25.65
2022-10-29T00:18:32.607Z,25.65
2022-10-29T00:18:42.612Z,25.65
2022-10-29T00:18:52.621Z,25.65
2022-10-29T00:19:02.624Z,25.64
2022-10-29T00:19:12.637Z,25.65
2022-10-29T00:19:22.625Z,25.64
2022-10-29T00:19:32.631Z,25.64
2022-10-29T00:19:42.622Z,25.64
2022-10-29T00:19:52.775Z,25.64
2022-10-29T00:20:02.861Z,25.64
2022-10-29T00:20:12.780Z,25.63
2022-10-29T00:20:22.883Z,25.63
2022-10-29T00:20:33.007Z,25.62
2022-10-29T00:20:43.116Z,25.62
2022-10-29T00:20:53.239Z,25.62
2022-10-29T00:21:03.353Z,25.63
2022-10-29T00:21:13.477Z,25.62
2022-10-29T00:21:23.518Z,25.62
2022-10-29T00:21:33.599Z,25.62
2022-10-29T00:21:43.586Z,25.62
2022-10-29T00:21:53.835Z,25.61
2022-10-29T00:22:03.951Z,25.61
2022-10-29T00:22:14.066Z,25.61
2022-10-29T00:22:24.191Z,25.60
2022-10-29T00:22:34.308Z,25.61
2022-10-29T00:22:44.429Z,25.60
2022-10-29T00:22:54.817Z,25.60
2022-10-29T00:23:04.622Z,25.60
2022-10-29T00:23:14.744Z,25.60
2022-10-29T00:23:24.992Z,25.60
2022-10-29T00:23:35.113Z,25.59
2022-10-29T00:23:45.108Z,25.60
2022-10-29T00:23:55.356Z,25.60
2022-10-29T00:24:05.484Z,25.60
2022-10-29T00:24:15.592Z,25.60
2022-10-29T00:24:25.713Z,25.60
2022-10-29T00:24:35.832Z,25.60
2022-10-29T00:24:45.950Z,25.60
2022-10-29T00:24:56.083Z,25.59
2022-10-29T00:25:06.202Z,25.60
2022-10-29T00:25:16.317Z,25.60
2022-10-29T00:25:26.449Z,25.59
2022-10-29T00:25:36.568Z,25.59
2022-10-29T00:25:46.692Z,25.59
2022-10-29T00:25:56.810Z,25.59
2022-10-29T00:26:06.980Z,25.59
2022-10-29T00:26:16.970Z,25.58
2022-10-29T00:26:27.239Z,25.59
2022-10-29T00:26:37.242Z,25.59
2022-10-29T00:26:47.232Z,25.59
2022-10-29T00:26:57.617Z,25.59
2022-10-29T00:27:07.608Z,25.59
2022-10-29T00:27:17.725Z,25.58
2022-10-29T00:27:27.973Z,25.58
2022-10-29T00:27:38.089Z,25.58
2022-10-29T00:27:48.213Z,25.57
2022-10-29T00:27:58.329Z,25.57
2022-10-29T00:28:08.327Z,25.57
2022-10-29T00:28:18.446Z,25.57
2022-10-29T00:28:28.700Z,25.58
2022-10-29T00:28:38.708Z,25.57
2022-10-29T00:28:48.701Z,25.57
2022-10-29T00:28:59.072Z,25.57
2022-10-29T00:29:09.186Z,25.57
2022-10-29T00:29:19.307Z,25.57
2022-10-29T00:29:29.428Z,25.57
2022-10-29T00:29:39.544Z,25.57
2022-10-29T00:29:49.665Z,25.56
2022-10-29T00:29:59.785Z,25.56
2022-10-29T00:30:09.789Z,25.56
2022-10-29T00:30:19.907Z,25.57
2022-10-29T00:30:30.156Z,25.58
2022-10-29T00:30:40.274Z,25.57
2022-10-29T00:30:50.391Z,25.57
2022-10-29T00:31:00.518Z,25.57
2022-10-29T00:31:10.522Z,25.56
2022-10-29T00:31:20.727Z,25.57
2022-10-29T00:31:30.995Z,25.56
2022-10-29T00:31:41.097Z,25.57
2022-10-29T00:31:51.152Z,25.56
2022-10-29T00:32:01.387Z,25.56
2022-10-29T00:32:11.449Z,25.56
2022-10-29T00:32:21.436Z,25.56
2022-10-29T00:32:31.825Z,25.56
2022-10-29T00:32:41.820Z,25.55
2022-10-29T00:32:52.073Z,25.56
2022-10-29T00:33:02.265Z,25.56
2022-10-29T00:33:12.407Z,25.56
2022-10-29T00:33:22.680Z,25.56
2022-10-29T00:33:32.760Z,25.56
2022-10-29T00:33:42.768Z,25.56
2022-10-29T00:33:52.773Z,25.56
2022-10-29T00:34:02.771Z,25.56
2022-10-29T00:34:12.799Z,25.55
2022-10-29T00:34:22.793Z,25.55
2022-10-29T00:34:32.943Z,25.55
2022-10-29T00:34:42.938Z,25.55
2022-10-29T00:34:52.938Z,25.54
2022-10-29T00:35:02.966Z,25.55
2022-10-29T00:35:13.195Z,25.54
2022-10-29T00:35:23.313Z,25.54
2022-10-29T00:35:33.430Z,25.54
2022-10-29T00:35:43.551Z,25.54
2022-10-29T00:35:53.550Z,25.54
2022-10-29T00:36:03.682Z,25.54
2022-10-29T00:36:13.915Z,25.54
2022-10-29T00:36:24.029Z,25.53
2022-10-29T00:36:34.149Z,25.53
2022-10-29T00:36:44.295Z,25.53
2022-10-29T00:36:54.303Z,25.53
2022-10-29T00:37:04.295Z,25.53
2022-10-29T00:37:14.673Z,25.54
2022-10-29T00:37:24.797Z,25.53
2022-10-29T00:37:34.914Z,25.52
2022-10-29T00:37:45.038Z,25.52
2022-10-29T00:37:55.537Z,25.52
2022-10-29T00:38:05.267Z,25.52
2022-10-29T00:38:15.397Z,25.51
2022-10-29T00:38:25.516Z,25.51
2022-10-29T00:38:35.516Z,25.51
2022-10-29T00:38:45.769Z,25.51
2022-10-29T00:38:55.777Z,25.51
2022-10-29T00:39:05.786Z,25.52
2022-10-29T00:39:15.791Z,25.52
2022-10-29T00:39:25.900Z,25.52
2022-10-29T00:39:36.018Z,25.52
2022-10-29T00:39:46.137Z,25.51
2022-10-29T00:39:56.257Z,25.51
2022-10-29T00:40:06.372Z,25.51
2022-10-29T00:40:16.371Z,25.51
2022-10-29T00:40:26.499Z,25.51
2022-10-29T00:40:36.623Z,25.51
2022-10-29T00:40:46.742Z,25.51
2022-10-29T00:40:56.862Z,25.51
2022-10-29T00:41:06.989Z,25.50
2022-10-29T00:41:16.987Z,25.51
2022-10-29T00:41:27.114Z,25.51
2022-10-29T00:41:37.112Z,25.50
2022-10-29T00:41:47.109Z,25.50
2022-10-29T00:41:57.236Z,25.50
2022-10-29T00:42:07.232Z,25.50
2022-10-29T00:42:17.350Z,25.49
2022-10-29T00:42:27.596Z,25.50
2022-10-29T00:42:37.715Z,25.50
2022-10-29T00:42:47.831Z,25.50
2022-10-29T00:42:57.954Z,25.49
2022-10-29T00:43:07.955Z,25.49
2022-10-29T00:43:18.075Z,25.49
2022-10-29T00:43:28.321Z,25.50
2022-10-29T00:43:38.436Z,25.50
2022-10-29T00:43:48.553Z,25.49
2022-10-29T00:43:58.686Z,25.50
2022-10-29T00:44:08.691Z,25.49
2022-10-29T00:44:18.687Z,25.50
2022-10-29T00:44:29.062Z,25.50
2022-10-29T00:44:39.180Z,25.50
2022-10-29T00:44:49.177Z,25.49
2022-10-29T00:44:59.426Z,25.49
2022-10-29T00:45:09.540Z,25.49
2022-10-29T00:45:19.664Z,25.49
2022-10-29T00:45:29.798Z,25.49
2022-10-29T00:45:39.918Z,25.48
2022-10-29T00:45:49.917Z,25.49
2022-10-29T00:46:00.182Z,25.48
2022-10-29T00:46:10.299Z,25.47
2022-10-29T00:46:20.416Z,25.48
2022-10-29T00:46:30.629Z,25.47
2022-10-29T00:46:40.657Z,25.47
2022-10-29T00:46:50.645Z,25.48
2022-10-29T00:47:01.020Z,25.47
2022-10-29T00:47:11.038Z,25.49
2022-10-29T00:47:21.023Z,25.48
2022-10-29T00:47:31.399Z,25.49
2022-10-29T00:47:41.517Z,25.47
2022-10-29T00:47:51.638Z,25.48
2022-10-29T00:48:01.757Z,25.48
2022-10-29T00:48:11.872Z,25.47
2022-10-29T00:48:21.990Z,25.47
2022-10-29T00:48:32.110Z,25.47
2022-10-29T00:48:42.229Z,25.47
2022-10-29T00:48:52.344Z,25.47
2022-10-29T00:49:02.473Z,25.46
2022-10-29T00:49:12.468Z,25.47
2022-10-29T00:49:22.585Z,25.47
2022-10-29T00:49:32.853Z,25.47
2022-10-29T00:49:42.964Z,25.48
2022-10-29T00:49:53.084Z,25.48
2022-10-29T00:50:03.231Z,25.47
2022-10-29T00:50:13.235Z,25.48
2022-10-29T00:50:23.331Z,25.47
2022-10-29T00:50:33.587Z,25.48
2022-10-29T00:50:43.579Z,25.47
2022-10-29T00:50:53.703Z,25.47
2022-10-29T00:51:04.039Z,25.47
2022-10-29T00:51:14.019Z,25.47
2022-10-29T00:51:24.135Z,25.47
2022-10-29T00:51:34.398Z,25.47
2022-10-29T00:51:44.403Z,25.47
2022-10-29T00:51:54.398Z,25.46
2022-10-29T00:52:04.771Z,25.46
2022-10-29T00:52:14.889Z,25.46
2022-10-29T00:52:25.011Z,25.46
2022-10-29T00:52:35.141Z,25.45
2022-10-29T00:52:45.265Z,25.46
2022-10-29T00:52:55.261Z,25.45
2022-10-29T00:53:05.511Z,25.45
2022-10-29T00:53:15.623Z,25.46
2022-10-29T00:53:25.753Z,25.46
2022-10-29T00:53:35.872Z,25.45
2022-10-29T00:53:46.022Z,25.45
2022-10-29T00:53:56.015Z,25.46
2022-10-29T00:54:06.275Z,25.46
2022-10-29T00:54:16.279Z,25.46
2022-10-29T00:54:26.390Z,25.46
2022-10-29T00:54:36.651Z,25.45
2022-10-29T00:54:46.768Z,25.46
2022-10-29T00:54:56.766Z,25.45
2022-10-29T00:55:07.015Z,25.46
2022-10-29T00:55:17.013Z,25.45
2022-10-29T00:55:27.132Z,25.45
2022-10-29T00:55:37.397Z,25.45
2022-10-29T00:55:47.512Z,25.45
2022-10-29T00:55:57.631Z,25.44
2022-10-29T00:56:07.751Z,25.45
2022-10-29T00:56:17.871Z,25.45
2022-10-29T00:56:27.988Z,25.45
2022-10-29T00:56:38.132Z,25.45
2022-10-29T00:56:48.239Z,25.45
2022-10-29T00:56:58.289Z,25.45
2022-10-29T00:57:08.547Z,25.44
2022-10-29T00:57:18.545Z,25.44
2022-10-29T00:57:28.547Z,25.44
2022-10-29T00:57:38.548Z,25.44
2022-10-29T00:57:48.565Z,25.44
2022-10-29T00:57:59.064Z,25.44
2022-10-29T00:58:08.774Z,25.44
2022-10-29T00:58:18.895Z,25.43
2022-10-29T00:58:29.023Z,25.44
2022-10-29T00:58:39.019Z,25.43
2022-10-29T00:58:49.023Z,25.43
2022-10-29T00:58:59.153Z,25.43
2022-10-29T00:59:09.251Z,25.42
2022-10-29T00:59:19.374Z,25.42
2022-10-29T00:59:29.500Z,25.43
2022-10-29T00:59:39.668Z,25.43
2022-10-29T00:59:59.797Z,25.43
2022-10-29T01:00:09.802Z,25.42
2022-10-29T01:00:20.182Z,25.42
2022-10-29T01:00:30.182Z,25.43
2022-10-29T01:00:40.200Z,25.43
2022-10-29T01:00:50.197Z,25.43
2022-10-29T01:01:00.331Z,25.42
2022-10-29T01:01:10.485Z,25.43
2022-10-29T01:01:20.643Z,25.43
2022-10-29T01:01:30.686Z,25.42
2022-10-29T01:01:40.777Z,25.42
2022-10-29T01:01:50.825Z,25.42
2022-10-29T01:02:01.050Z,25.42
2022-10-29T01:02:11.162Z,25.42
2022-10-29T01:02:21.129Z,25.42
2022-10-29T01:02:31.223Z,25.42
2022-10-29T01:02:41.286Z,25.42
2022-10-29T01:02:51.363Z,25.42
2022-10-29T01:03:01.356Z,25.42
2022-10-29T01:03:11.569Z,25.42
2022-10-29T01:03:21.592Z,25.41
2022-10-29T01:03:31.710Z,25.41
2022-10-29T01:03:41.835Z,25.41
2022-10-29T01:03:51.954Z,25.42
2022-10-29T01:04:02.067Z,25.41
2022-10-29T01:04:12.189Z,25.41
2022-10-29T01:04:22.312Z,25.42
2022-10-29T01:04:32.310Z,25.42
2022-10-29T01:04:42.558Z,25.42
2022-10-29T01:04:52.680Z,25.41
2022-10-29T01:05:02.685Z,25.42
2022-10-29T01:05:12.941Z,25.41
2022-10-29T01:05:22.968Z,25.42
2022-10-29T01:05:33.059Z,25.42
2022-10-29T01:05:43.314Z,25.41
2022-10-29T01:05:53.435Z,25.41
2022-10-29T01:06:03.434Z,25.42
2022-10-29T01:06:13.690Z,25.42
2022-10-29T01:06:23.803Z,25.41
2022-10-29T01:06:33.924Z,25.41
2022-10-29T01:06:44.057Z,25.41
2022-10-29T01:06:54.192Z,25.41
2022-10-29T01:07:04.182Z,25.40
2022-10-29T01:07:14.441Z,25.40
2022-10-29T01:07:24.558Z,25.40
2022-10-29T01:07:34.560Z,25.40
2022-10-29T01:07:44.815Z,25.40
2022-10-29T01:07:54.933Z,25.40
2022-10-29T01:08:05.047Z,25.40
2022-10-29T01:08:15.169Z,25.40
2022-10-29T01:08:25.285Z,25.40
2022-10-29T01:08:35.405Z,25.41
2022-10-29T01:08:45.533Z,25.40
2022-10-29T01:08:55.657Z,25.39
2022-10-29T01:09:05.776Z,25.40
2022-10-29T01:09:15.894Z,25.40
2022-10-29T01:09:26.015Z,25.39
2022-10-29T01:09:36.135Z,25.40
2022-10-29T01:09:46.255Z,25.39
2022-10-29T01:09:56.375Z,25.39
2022-10-29T01:10:06.493Z,25.39
2022-10-29T01:10:16.614Z,25.40
2022-10-29T01:10:26.732Z,25.40
2022-10-29T01:10:36.844Z,25.41
2022-10-29T01:10:46.988Z,25.41
2022-10-29T01:10:56.970Z,25.42
2022-10-29T01:11:06.995Z,25.42
2022-10-29T01:11:17.003Z,25.41
2022-10-29T01:11:27.110Z,25.42
2022-10-29T01:11:37.224Z,25.41
2022-10-29T01:11:47.340Z,25.42
2022-10-29T01:11:57.463Z,25.42
2022-10-29T01:12:07.581Z,25.41
2022-10-29T01:12:17.698Z,25.40
2022-10-29T01:12:27.692Z,25.40
2022-10-29T01:12:37.814Z,25.41
2022-10-29T01:12:47.932Z,25.40
2022-10-29T01:12:58.528Z,25.40
2022-10-29T01:13:08.170Z,25.40
2022-10-29T01:13:18.201Z,25.40
2022-10-29T01:13:28.321Z,25.39
2022-10-29T01:13:38.435Z,25.39
2022-10-29T01:13:48.435Z,25.39
2022-10-29T01:13:58.569Z,25.39
2022-10-29T01:14:08.686Z,25.39
2022-10-29T01:14:18.805Z,25.39
2022-10-29T01:14:28.926Z,25.39
2022-10-29T01:14:39.040Z,25.39
2022-10-29T01:14:49.157Z,25.39
2022-10-29T01:14:59.280Z,25.38
2022-10-29T01:15:09.280Z,25.38
2022-10-29T01:15:19.395Z,25.38
2022-10-29T01:15:29.651Z,25.38
2022-10-29T01:15:39.768Z,25.38
2022-10-29T01:15:49.780Z,25.38
2022-10-29T01:16:00.031Z,25.38
2022-10-29T01:16:10.146Z,25.38
2022-10-29T01:16:20.262Z,25.38
2022-10-29T01:16:30.392Z,25.38
2022-10-29T01:16:40.392Z,25.38
2022-10-29T01:16:50.511Z,25.37
2022-10-29T01:17:00.764Z,25.38
2022-10-29T01:17:10.879Z,25.38
2022-10-29T01:17:20.999Z,25.38
2022-10-29T01:17:31.122Z,25.38
2022-10-29T01:17:41.241Z,25.38
2022-10-29T01:17:51.362Z,25.38
2022-10-29T01:18:01.478Z,25.38
2022-10-29T01:18:11.595Z,25.38
2022-10-29T01:18:21.716Z,25.37
2022-10-29T01:18:31.942Z,25.38
2022-10-29T01:18:41.990Z,25.38
2022-10-29T01:18:52.062Z,25.36
2022-10-29T01:19:02.096Z,25.38
2022-10-29T01:19:12.213Z,25.37
2022-10-29T01:19:22.372Z,25.37
2022-10-29T01:19:32.244Z,25.36
2022-10-29T01:19:42.377Z,25.37
2022-10-29T01:19:52.366Z,25.37
2022-10-29T01:20:02.484Z,25.37
2022-10-29T01:20:12.503Z,25.37
2022-10-29T01:20:22.503Z,25.37
2022-10-29T01:20:32.641Z,25.38
2022-10-29T01:20:42.874Z,25.36
2022-10-29T01:20:52.876Z,25.36
2022-10-29T01:21:02.991Z,25.36
2022-10-29T01:21:13.240Z,25.36
2022-10-29T01:21:23.241Z,25.36
2022-10-29T01:21:33.357Z,25.36
2022-10-29T01:21:43.609Z,25.36
2022-10-29T01:21:53.721Z,25.36
2022-10-29T01:22:03.839Z,25.36
2022-10-29T01:22:13.970Z,25.37
2022-10-29T01:22:24.087Z,25.37
2022-10-29T01:22:34.202Z,25.36
2022-10-29T01:22:44.324Z,25.36
2022-10-29T01:22:54.439Z,25.37
2022-10-29T01:23:04.556Z,25.37
2022-10-29T01:23:14.681Z,25.36
2022-10-29T01:23:24.799Z,25.37
2022-10-29T01:23:34.912Z,25.36
2022-10-29T01:23:45.034Z,25.36
2022-10-29T01:23:55.159Z,25.36
2022-10-29T01:24:05.156Z,25.37
2022-10-29T01:24:15.410Z,25.36
2022-10-29T01:24:25.404Z,25.36
2022-10-29T01:24:35.523Z,25.37
2022-10-29T01:24:45.772Z,25.37
2022-10-29T01:24:55.889Z,25.37
2022-10-29T01:25:06.003Z,25.36
2022-10-29T01:25:16.153Z,25.36
2022-10-29T01:25:26.150Z,25.36
2022-10-29T01:25:36.271Z,25.36
2022-10-29T01:25:46.514Z,25.36
2022-10-29T01:25:56.636Z,25.36
2022-10-29T01:26:06.753Z,25.36
2022-10-29T01:26:16.878Z,25.37
2022-10-29T01:26:26.991Z,25.36
2022-10-29T01:26:37.114Z,25.36
2022-10-29T01:26:47.246Z,25.36
2022-10-29T01:26:57.363Z,25.35
2022-10-29T01:27:07.477Z,25.35
2022-10-29T01:27:17.600Z,25.35
2022-10-29T01:27:27.606Z,25.35
2022-10-29T01:27:37.744Z,25.35
2022-10-29T01:27:47.999Z,25.35
2022-10-29T01:27:58.760Z,25.35
2022-10-29T01:28:08.119Z,25.35
2022-10-29T01:28:18.431Z,25.35
2022-10-29T01:28:28.453Z,25.34
2022-10-29T01:28:38.443Z,25.35
2022-10-29T01:28:48.823Z,25.35
2022-10-29T01:28:58.817Z,25.35
2022-10-29T01:29:08.934Z,25.35
2022-10-29T01:29:19.192Z,25.35
2022-10-29T01:29:29.312Z,25.35
2022-10-29T01:29:39.431Z,25.35
2022-10-29T01:29:49.548Z,25.35
2022-10-29T01:29:59.674Z,25.35
2022-10-29T01:30:09.810Z,25.34
2022-10-29T01:30:19.955Z,25.35
2022-10-29T01:30:29.957Z,25.35
2022-10-29T01:30:39.956Z,25.35
2022-10-29T01:30:50.330Z,25.35
2022-10-29T01:31:00.446Z,25.35
2022-10-29T01:31:10.562Z,25.35
2022-10-29T01:31:20.712Z,25.34
2022-10-29T01:31:30.806Z,25.35
2022-10-29T01:31:40.927Z,25.35
2022-10-29T01:31:51.057Z,25.36
2022-10-29T01:32:01.179Z,25.35
2022-10-29T01:32:11.173Z,25.35
2022-10-29T01:32:21.422Z,25.35
2022-10-29T01:32:31.539Z,25.35
2022-10-29T01:32:41.660Z,25.35
2022-10-29T01:32:51.838Z,25.35
2022-10-29T01:33:01.809Z,25.35
2022-10-29T01:33:11.931Z,25.35
2022-10-29T01:33:22.179Z,25.35
2022-10-29T01:33:32.183Z,25.35
2022-10-29T01:33:42.303Z,25.34
2022-10-29T01:33:52.550Z,25.34
2022-10-29T01:34:02.687Z,25.34
2022-10-29T01:34:12.678Z,25.35
2022-10-29T01:34:22.946Z,25.35
2022-10-29T01:34:32.946Z,25.35
2022-10-29T01:34:43.063Z,25.34
2022-10-29T01:34:53.310Z,25.34
2022-10-29T01:35:03.400Z,25.34
2022-10-29T01:35:13.407Z,25.35
2022-10-29T01:35:23.403Z,25.34
2022-10-29T01:35:33.525Z,25.35
2022-10-29T01:35:43.670Z,25.35
2022-10-29T01:35:53.762Z,25.35
2022-10-29T01:36:03.883Z,25.34
2022-10-29T01:36:13.883Z,25.35
2022-10-29T01:36:24.001Z,25.35
2022-10-29T01:36:34.126Z,25.35
2022-10-29T01:36:44.125Z,25.35
2022-10-29T01:36:54.241Z,25.35
2022-10-29T01:37:04.362Z,25.35
2022-10-29T01:37:14.480Z,25.34
2022-10-29T01:37:24.602Z,25.34
2022-10-29T01:37:34.601Z,25.35
2022-10-29T01:37:44.718Z,25.34
2022-10-29T01:37:54.834Z,25.35
2022-10-29T01:38:04.958Z,25.35
2022-10-29T01:38:15.076Z,25.35
2022-10-29T01:38:25.087Z,25.34
2022-10-29T01:38:35.211Z,25.35
2022-10-29T01:38:45.329Z,25.34
2022-10-29T01:38:55.329Z,25.35
2022-10-29T01:39:05.581Z,25.35
2022-10-29T01:39:15.720Z,25.35
2022-10-29T01:39:25.708Z,25.35
2022-10-29T01:39:35.973Z,25.35
2022-10-29T01:39:45.970Z,25.34
2022-10-29T01:39:56.096Z,25.35
2022-10-29T01:40:06.333Z,25.34
2022-10-29T01:40:16.454Z,25.35
2022-10-29T01:40:26.457Z,25.34
2022-10-29T01:40:36.710Z,25.34
2022-10-29T01:40:46.832Z,25.35
2022-10-29T01:40:56.825Z,25.34
2022-10-29T01:41:07.074Z,25.34
2022-10-29T01:41:17.191Z,25.35
2022-10-29T01:41:27.308Z,25.34
2022-10-29T01:41:37.430Z,25.34
2022-10-29T01:41:47.550Z,25.35
2022-10-29T01:41:57.552Z,25.35
2022-10-29T01:42:07.803Z,25.34
2022-10-29T01:42:17.916Z,25.35
2022-10-29T01:42:28.037Z,25.34
2022-10-29T01:42:38.167Z,25.33
2022-10-29T01:42:48.288Z,25.34
2022-10-29T01:42:58.486Z,25.34
2022-10-29T01:43:08.650Z,25.34
2022-10-29T01:43:28.778Z,25.34
2022-10-29T01:43:39.031Z,25.33
2022-10-29T01:43:49.142Z,25.34
2022-10-29T01:43:59.257Z,25.34
2022-10-29T01:44:09.389Z,25.33
2022-10-29T01:44:19.430Z,25.33
2022-10-29T01:44:29.423Z,25.33
2022-10-29T01:44:39.797Z,25.33
2022-10-29T01:44:49.918Z,25.33
2022-10-29T01:44:59.915Z,25.33
2022-10-29T01:45:10.174Z,25.33
2022-10-29T01:45:20.176Z,25.33
2022-10-29T01:45:30.298Z,25.33
2022-10-29T01:45:40.559Z,25.33
2022-10-29T01:45:50.675Z,25.33
2022-10-29T01:46:00.796Z,25.33
2022-10-29T01:46:10.925Z,25.33
2022-10-29T01:46:20.924Z,25.33
2022-10-29T01:46:31.045Z,25.33
2022-10-29T01:46:41.301Z,25.33
2022-10-29T01:46:51.306Z,25.33
2022-10-29T01:47:01.426Z,25.33
2022-10-29T01:47:11.681Z,25.33
2022-10-29T01:47:21.798Z,25.33
2022-10-29T01:47:31.934Z,25.33
2022-10-29T01:47:42.038Z,25.33
2022-10-29T01:47:52.264Z,25.33
2022-10-29T01:48:02.173Z,25.33
2022-10-29T01:48:12.428Z,25.33
2022-10-29T01:48:22.428Z,25.32
2022-10-29T01:48:33.372Z,25.33
2022-10-29T01:48:42.590Z,25.32
2022-10-29T01:48:52.713Z,25.32
2022-10-29T01:49:02.832Z,25.32
2022-10-29T01:49:12.959Z,25.33
2022-10-29T01:49:22.954Z,25.33
2022-10-29T01:49:33.082Z,25.33
2022-10-29T01:49:43.083Z,25.32
2022-10-29T01:49:53.208Z,25.32
2022-10-29T01:50:03.205Z,25.33
2022-10-29T01:50:13.321Z,25.33
2022-10-29T01:50:23.443Z,25.33
2022-10-29T01:50:33.559Z,25.32
2022-10-29T01:50:43.683Z,25.33
2022-10-29T01:50:53.707Z,25.33
2022-10-29T01:51:03.806Z,25.33
2022-10-29T01:51:13.926Z,25.33
2022-10-29T01:51:24.046Z,25.33
2022-10-29T01:51:34.168Z,25.33
2022-10-29T01:51:44.164Z,25.33
2022-10-29T01:51:54.415Z,25.33
2022-10-29T01:52:04.411Z,25.33
2022-10-29T01:52:14.530Z,25.33
2022-10-29T01:52:24.780Z,25.34
2022-10-29T01:52:34.895Z,25.33
2022-10-29T01:52:44.898Z,25.34
2022-10-29T01:52:55.148Z,25.34
2022-10-29T01:53:05.268Z,25.33
2022-10-29T01:53:15.400Z,25.34
2022-10-29T01:53:25.530Z,25.34
2022-10-29T01:53:35.649Z,25.34
2022-10-29T01:53:45.764Z,25.34
2022-10-29T01:53:55.892Z,25.34
2022-10-29T01:54:06.013Z,25.34
2022-10-29T01:54:16.128Z,25.34
2022-10-29T01:54:26.261Z,25.33
2022-10-29T01:54:36.377Z,25.34
2022-10-29T01:54:46.374Z,25.33
2022-10-29T01:54:56.626Z,25.34
2022-10-29T01:55:06.740Z,25.33
2022-10-29T01:55:16.861Z,25.33
2022-10-29T01:55:26.981Z,25.33
2022-10-29T01:55:37.098Z,25.33
2022-10-29T01:55:47.098Z,25.33
2022-10-29T01:55:57.347Z,25.33
2022-10-29T01:56:07.464Z,25.32
2022-10-29T01:56:17.588Z,25.33
2022-10-29T01:56:27.726Z,25.32
2022-10-29T01:56:37.839Z,25.33
2022-10-29T01:56:47.839Z,25.33
2022-10-29T01:56:58.090Z,25.32
2022-10-29T01:57:08.087Z,25.33
2022-10-29T01:57:18.209Z,25.32
2022-10-29T01:57:28.463Z,25.32
2022-10-29T01:57:38.468Z,25.32
2022-10-29T01:57:48.577Z,25.32
2022-10-29T01:57:59.238Z,25.32
2022-10-29T01:58:08.923Z,25.32
2022-10-29T01:58:18.951Z,25.32
2022-10-29T01:58:28.946Z,25.32
2022-10-29T01:58:38.940Z,25.31
2022-10-29T01:58:49.055Z,25.32
2022-10-29T01:58:59.175Z,25.32
2022-10-29T01:59:14.457Z,25.32
2022-10-29T01:59:35.220Z,25.27
2022-10-29T01:59:43.101Z,25.23
2022-10-29T01:59:54.952Z,25.21
2022-10-29T01:59:56.046Z,25.19
2022-10-29T01:59:59.583Z,25.16
2022-10-29T02:00:09.581Z,25.20
2022-10-29T02:00:19.697Z,25.23
2022-10-29T02:00:29.845Z,25.24
2022-10-29T02:00:39.925Z,25.25
2022-10-29T02:00:50.003Z,25.26
2022-10-29T02:01:00.041Z,25.26
2022-10-29T02:01:10.232Z,25.26
2022-10-29T02:01:20.435Z,25.27
2022-10-29T02:01:30.564Z,25.27
2022-10-29T02:01:40.420Z,25.28
2022-10-29T02:01:50.499Z,25.28
2022-10-29T02:02:00.574Z,25.29
2022-10-29T02:02:10.566Z,25.28
2022-10-29T02:02:20.713Z,25.29
2022-10-29T02:02:30.709Z,25.29
2022-10-29T02:02:45.742Z,25.29
2022-10-29T02:02:50.942Z,25.25
2022-10-29T02:03:01.461Z,25.26
2022-10-29T02:03:11.294Z,25.27
2022-10-29T02:03:21.281Z,25.28
2022-10-29T02:03:31.281Z,25.29
2022-10-29T02:03:41.653Z,25.29
2022-10-29T02:03:51.652Z,25.29
2022-10-29T02:04:01.773Z,25.29
2022-10-29T02:04:12.025Z,25.30
2022-10-29T02:04:22.141Z,25.30
2022-10-29T02:04:32.255Z,25.30
2022-10-29T02:04:42.375Z,25.30
2022-10-29T02:04:52.377Z,25.31
2022-10-29T02:05:02.495Z,25.30
2022-10-29T02:05:12.740Z,25.31
2022-10-29T02:05:22.857Z,25.31
2022-10-29T02:05:32.855Z,25.30
2022-10-29T02:05:43.102Z,25.31
2022-10-29T02:05:53.099Z,25.31
2022-10-29T02:06:03.337Z,25.31
2022-10-29T02:06:13.572Z,25.31
2022-10-29T02:06:23.704Z,25.31
2022-10-29T02:06:33.823Z,25.31
2022-10-29T02:06:43.949Z,25.32
2022-10-29T02:06:54.061Z,25.32
2022-10-29T02:07:04.179Z,25.31
2022-10-29T02:07:14.308Z,25.32
2022-10-29T02:07:24.422Z,25.32
2022-10-29T02:07:34.538Z,25.31
2022-10-29T02:07:44.663Z,25.32
2022-10-29T02:07:54.672Z,25.32
2022-10-29T02:08:04.657Z,25.32
2022-10-29T02:08:15.036Z,25.32
2022-10-29T02:08:25.043Z,25.32
2022-10-29T02:08:35.035Z,25.32
2022-10-29T02:08:45.035Z,25.32
2022-10-29T02:08:55.158Z,25.32
2022-10-29T02:09:05.276Z,25.32
2022-10-29T02:09:15.393Z,25.31
2022-10-29T02:09:25.395Z,25.32
2022-10-29T02:09:35.514Z,25.32
2022-10-29T02:09:45.513Z,25.31
2022-10-29T02:09:55.636Z,25.32
2022-10-29T02:10:05.749Z,25.32
2022-10-29T02:10:15.752Z,25.31
2022-10-29T02:10:25.873Z,25.32